Terminal Aerodrome Forecast
Issued by NWS

Home | Current Version | Previous Version | Text Only | Print | Product List | Glossary On
Versions: 1 2 3 4 5 6 7 8 9 10 11 12 13 14 15 16 17 18 19 20 21 22 23 24
970
FTUS43 KGLD 141720
TAFMCK
TAF
KMCK 141720Z 1418/1518 30011KT P6SM BKN008 BKN015
     FM141900 30020G30KT P6SM BKN035 BKN045
     FM142100 32030G40KT P6SM FEW045 SCT090
     FM150200 33020G30KT P6SM FEW030 FEW250 WS020/34040KT
     FM150600 33011KT P6SM SKC
     FM150900 29011KT P6SM SKC=

USA.gov is the U.S. government's official web portal to all federal, state and local government web resources and services.